Time;durP1;ratioP1;P1;durP2;ratioP2;P2;SDS_P1;SDS_P2;PMS_P1;PMS_P2;Temp;Humidity;BMP_temperature;BMP_pressure;BME280_temperature;BME280_humidity;BME280_pressure;Samples;Min_cycle;Max_cycle;Signal;HPM_P1;HPM_P2
2024/04/06 00:00:53;;;;;;;1999.90;999.90;;;17.20;99.90;;;;;;5034980;28;20477;-66
2024/04/06 00:03:19;;;;;;;1999.90;999.90;;;17.30;99.90;;;;;;5034952;28;20025;-67
2024/04/06 00:05:45;;;;;;;1999.90;999.90;;;17.20;99.90;;;;;;5034750;28;20488;-67
2024/04/06 00:08:10;;;;;;;1999.90;999.90;;;17.30;99.90;;;;;;5034489;28;20036;-72
2024/04/06 00:10:36;;;;;;;1999.90;999.90;;;17.20;99.90;;;;;;5034159;28;20116;-67
2024/04/06 00:13:02;;;;;;;1999.90;999.90;;;;;;;;;;5033482;28;20033;-73
2024/04/06 00:15:28;;;;;;;1999.90;999.90;;;17.00;99.90;;;;;;5034468;28;20044;-67
2024/04/06 00:17:53;;;;;;;1999.90;999.90;;;17.00;99.90;;;;;;5034582;28;20478;-67
2024/04/06 00:20:19;;;;;;;1999.90;999.90;;;17.00;99.90;;;;;;5034537;28;20025;-67
2024/04/06 00:22:44;;;;;;;1999.90;999.90;;;16.90;99.90;;;;;;5033688;28;20428;-66
2024/04/06 00:25:10;;;;;;;1999.90;999.90;;;16.80;99.90;;;;;;5034037;28;20053;-66
2024/04/06 00:27:35;;;;;;;1999.90;999.90;;;16.70;99.90;;;;;;5034664;28;20029;-67
2024/04/06 00:30:01;;;;;;;1999.90;999.90;;;16.70;99.90;;;;;;5034104;28;20026;-67
2024/04/06 00:32:27;;;;;;;1999.90;999.90;;;16.80;99.90;;;;;;5033968;28;20030;-67
2024/04/06 00:34:52;;;;;;;1999.90;999.90;;;16.80;99.90;;;;;;5034030;28;20065;-66
2024/04/06 00:37:18;;;;;;;1999.90;999.90;;;16.80;99.90;;;;;;5034115;28;20033;-66
2024/04/06 00:39:43;;;;;;;1999.90;999.90;;;16.80;99.90;;;;;;5034016;28;20383;-67
2024/04/06 00:42:09;;;;;;;1999.90;999.90;;;16.70;99.90;;;;;;5033893;28;20030;-67
2024/04/06 00:44:35;;;;;;;1999.90;999.90;;;16.80;99.90;;;;;;5033027;28;20034;-72
2024/04/06 00:47:02;;;;;;;1999.90;999.90;;;16.70;99.90;;;;;;5033838;28;20061;-72
2024/04/06 00:49:28;;;;;;;1999.90;999.90;;;16.70;99.90;;;;;;5033589;28;20032;-67
2024/04/06 00:51:54;;;;;;;1999.90;999.90;;;16.80;99.90;;;;;;5033900;28;20029;-72
2024/04/06 00:54:20;;;;;;;1999.90;999.90;;;16.80;99.90;;;;;;5033497;28;20030;-72
2024/04/06 00:56:48;;;;;;;1999.90;999.90;;;16.80;99.90;;;;;;5033569;28;20048;-72
2024/04/06 00:59:15;;;;;;;1999.90;999.90;;;16.70;99.90;;;;;;5032669;28;20056;-72
2024/04/06 01:01:40;;;;;;;1999.90;999.90;;;16.60;99.90;;;;;;5033647;28;20029;-73
2024/04/06 01:04:06;;;;;;;1999.90;999.90;;;16.60;99.90;;;;;;5033784;28;20076;-73
2024/04/06 01:06:32;;;;;;;1999.90;999.90;;;16.50;99.90;;;;;;5031951;28;20056;-67
2024/04/06 01:08:58;;;;;;;1999.90;999.90;;;16.50;99.90;;;;;;5033390;28;20057;-67
2024/04/06 01:11:24;;;;;;;1999.90;999.90;;;16.50;99.90;;;;;;5033590;28;20064;-72
2024/04/06 01:13:49;;;;;;;1999.90;999.90;;;16.40;99.90;;;;;;5033179;28;20057;-67
2024/04/06 01:16:15;;;;;;;1999.90;999.90;;;16.40;99.90;;;;;;5033431;28;20045;-66
2024/04/06 01:18:41;;;;;;;1999.90;999.90;;;16.40;99.90;;;;;;5033202;28;20499;-66
2024/04/06 01:21:07;;;;;;;1999.90;999.90;;;16.40;99.90;;;;;;5033223;28;20052;-67
2024/04/06 01:23:35;;;;;;;1999.90;999.90;;;16.30;99.90;;;;;;5033117;28;20442;-72
2024/04/06 01:26:01;;;;;;;1999.90;999.90;;;16.30;99.90;;;;;;5032968;28;20025;-72
2024/04/06 01:28:27;;;;;;;1999.90;999.90;;;16.30;99.90;;;;;;5033178;28;20029;-67
2024/04/06 01:30:53;;;;;;;1999.90;999.90;;;16.30;99.90;;;;;;5033511;28;20160;-66
2024/04/06 01:33:19;;;;;;;1999.90;999.90;;;16.20;99.90;;;;;;5032722;28;20408;-67
2024/04/06 01:35:44;;;;;;;1999.90;999.90;;;16.20;99.90;;;;;;5032984;28;20114;-74
2024/04/06 01:38:10;;;;;;;1999.90;999.90;;;16.20;99.90;;;;;;5032708;28;20037;-67
2024/04/06 01:40:36;;;;;;;1999.90;999.90;;;16.10;99.90;;;;;;5033001;28;20100;-67
2024/04/06 01:43:02;;;;;;;1999.90;999.90;;;16.10;99.90;;;;;;5032940;28;20022;-73
2024/04/06 01:45:27;;;;;;;1999.90;999.90;;;16.10;99.90;;;;;;5032976;28;20013;-67
2024/04/06 01:47:53;;;;;;;1999.90;999.90;;;16.10;99.90;;;;;;5033049;28;20134;-67
2024/04/06 01:50:19;;;;;;;1999.90;999.90;;;16.10;99.90;;;;;;5032736;28;20025;-74
2024/04/06 01:52:44;;;;;;;1999.90;999.90;;;16.10;99.90;;;;;;5032724;28;20025;-67
2024/04/06 01:55:10;;;;;;;1999.90;999.90;;;16.10;99.90;;;;;;5033090;28;20026;-72
2024/04/06 01:57:35;;;;;;;1999.90;999.90;;;16.00;99.90;;;;;;5032792;28;20100;-67
2024/04/06 02:00:02;;;;;;;1999.90;999.90;;;15.90;99.90;;;;;;5032213;28;20021;-67
2024/04/06 02:02:28;;;;;;;1999.90;999.90;;;15.90;99.90;;;;;;5032078;28;20029;-68
2024/04/06 02:04:53;;;;;;;1999.90;999.90;;;15.90;99.90;;;;;;5032454;28;20108;-74
2024/04/06 02:07:19;;;;;;;1999.90;999.90;;;15.90;99.90;;;;;;5032726;28;20503;-74
2024/04/06 02:09:44;;;;;;;1999.90;999.90;;;15.90;99.90;;;;;;5032502;28;20029;-67
2024/04/06 02:12:11;;;;;;;1999.90;999.90;;;15.90;99.90;;;;;;5032458;28;20112;-71
2024/04/06 02:14:36;;;;;;;1999.90;999.90;;;15.80;99.90;;;;;;5032153;28;20083;-74
2024/04/06 02:17:06;;;;;;;1999.90;999.90;;;15.80;99.90;;;;;;5032683;28;22248;-73
2024/04/06 02:19:31;;;;;;;1999.90;999.90;;;15.80;99.90;;;;;;5032523;28;20111;-67
2024/04/06 02:21:58;;;;;;;1999.90;999.90;;;15.70;99.90;;;;;;5032337;28;20096;-66
2024/04/06 02:24:23;;;;;;;1999.90;999.90;;;15.70;99.90;;;;;;5032558;28;20037;-71
2024/04/06 02:26:49;;;;;;;1999.90;999.90;;;15.70;99.90;;;;;;5032154;28;20026;-67
2024/04/06 02:29:15;;;;;;;1999.90;999.90;;;15.70;99.90;;;;;;5032662;28;20026;-73
2024/04/06 02:31:40;;;;;;;1999.90;999.90;;;15.70;99.90;;;;;;5032389;28;20032;-67
2024/04/06 02:34:06;;;;;;;1999.90;999.90;;;15.70;99.90;;;;;;5032333;28;20029;-72
2024/04/06 02:36:35;;;;;;;1999.90;999.90;;;15.70;99.90;;;;;;5032129;28;20029;-72
2024/04/06 02:39:01;;;;;;;1999.90;999.90;;;15.80;99.90;;;;;;5032275;28;20036;-74
2024/04/06 02:41:27;;;;;;;1999.90;999.90;;;15.70;99.90;;;;;;5032473;28;20100;-72
2024/04/06 02:43:52;;;;;;;1999.90;999.90;;;15.70;99.90;;;;;;5032313;28;20114;-72
2024/04/06 02:46:18;;;;;;;1999.90;999.90;;;15.70;99.90;;;;;;5032387;28;20067;-67
2024/04/06 02:48:43;;;;;;;1999.90;999.90;;;15.60;99.90;;;;;;5032331;28;20064;-72
2024/04/06 02:51:09;;;;;;;1999.90;999.90;;;15.50;99.90;;;;;;5032261;28;20028;-66
2024/04/06 02:53:35;;;;;;;1999.90;999.90;;;15.50;99.90;;;;;;5032124;28;20037;-66
2024/04/06 02:56:00;;;;;;;1999.90;999.90;;;15.50;99.90;;;;;;5032625;28;20396;-72
2024/04/06 02:58:26;;;;;;;1999.90;999.90;;;15.40;99.90;;;;;;5032124;28;20533;-72
2024/04/06 03:00:52;;;;;;;1999.90;999.90;;;15.40;99.90;;;;;;5032310;28;20025;-67
2024/04/06 03:03:17;;;;;;;1999.90;999.90;;;15.40;99.90;;;;;;5032559;28;20030;-67
2024/04/06 03:05:44;;;;;;;1999.90;999.90;;;15.30;99.90;;;;;;5032119;28;20026;-73
2024/04/06 03:08:11;;;;;;;1999.90;999.90;;;15.30;99.90;;;;;;5035534;28;20108;-72
2024/04/06 03:10:37;;;;;;;1999.90;999.90;;;15.40;99.90;;;;;;5035547;28;20104;-74
2024/04/06 03:13:03;;;;;;;1999.90;999.90;;;15.50;99.90;;;;;;5035580;28;20107;-66
2024/04/06 03:15:29;;;;;;;1999.90;999.90;;;15.40;99.90;;;;;;5035900;28;20033;-70
2024/04/06 03:17:55;;;;;;;1999.90;999.90;;;15.40;99.90;;;;;;5035448;28;20022;-66
2024/04/06 03:20:21;;;;;;;1999.90;999.90;;;15.40;99.90;;;;;;5035526;28;20436;-74
2024/04/06 03:22:59;;;;;;;1999.90;999.90;;;15.30;99.90;;;;;;5035092;28;20025;-66
2024/04/06 03:25:32;;;;;;;1999.90;999.90;;;15.30;99.90;;;;;;5035484;28;20072;-67
2024/04/06 03:27:58;;;;;;;1999.90;999.90;;;15.40;99.90;;;;;;5035466;28;20462;-67
2024/04/06 03:30:25;;;;;;;1999.90;999.90;;;15.40;99.90;;;;;;5035299;28;20037;-68
2024/04/06 03:32:52;;;;;;;1999.90;999.90;;;15.40;99.90;;;;;;5034997;28;20029;-66
2024/04/06 03:35:18;;;;;;;1999.90;999.90;;;15.40;99.90;;;;;;5035000;28;20100;-66
2024/04/06 03:37:47;;;;;;;1999.90;999.90;;;15.30;99.90;;;;;;5035183;28;20029;-67
2024/04/06 03:40:13;;;;;;;1999.90;999.90;;;15.30;99.90;;;;;;5035375;28;20464;-73
2024/04/06 03:42:38;;;;;;;1999.90;999.90;;;15.30;99.90;;;;;;5034976;28;20079;-67
2024/04/06 03:45:05;;;;;;;1999.90;999.90;;;15.20;99.90;;;;;;5035340;28;20029;-66
2024/04/06 03:47:31;;;;;;;1999.90;999.90;;;15.20;99.90;;;;;;5035515;28;20091;-73
2024/04/06 03:49:57;;;;;;;1999.90;999.90;;;15.30;99.90;;;;;;5035179;28;20443;-73
2024/04/06 03:52:24;;;;;;;1999.90;999.90;;;15.30;99.90;;;;;;5034766;28;20552;-66
2024/04/06 03:54:49;;;;;;;1999.90;999.90;;;15.20;99.90;;;;;;5035327;28;20033;-71
2024/04/06 03:57:15;;;;;;;1999.90;999.90;;;15.20;99.90;;;;;;5034777;28;20021;-67
2024/04/06 03:59:41;;;;;;;1999.90;999.90;;;15.20;99.90;;;;;;5034169;28;20032;-72
2024/04/06 04:02:07;;;;;;;1999.90;999.90;;;15.20;99.90;;;;;;5034973;28;20025;-66
2024/04/06 04:04:32;;;;;;;1999.90;999.90;;;15.10;99.90;;;;;;5034876;28;20026;-72
2024/04/06 04:06:58;;;;;;;1999.90;999.90;;;15.10;99.90;;;;;;5034371;28;20025;-67
2024/04/06 04:09:24;;;;;;;1999.90;999.90;;;15.00;99.90;;;;;;5035125;28;20084;-73
2024/04/06 04:11:50;;;;;;;1999.90;999.90;;;15.00;99.90;;;;;;5034618;28;20036;-71
2024/04/06 04:14:16;;;;;;;1999.90;999.90;;;15.00;99.90;;;;;;5034214;28;20558;-68
2024/04/06 04:16:42;;;;;;;1999.90;999.90;;;15.00;99.90;;;;;;5034565;28;20021;-67
2024/04/06 04:19:07;;;;;;;1999.90;999.90;;;15.00;99.90;;;;;;5033290;28;20046;-67
2024/04/06 04:21:33;;;;;;;1999.90;999.90;;;15.00;99.90;;;;;;5033989;28;20417;-66
2024/04/06 04:23:59;;;;;;;1999.90;999.90;;;14.90;99.90;;;;;;5034246;28;20488;-67
2024/04/06 04:26:24;;;;;;;1999.90;999.90;;;14.90;99.90;;;;;;5034058;28;20029;-66
2024/04/06 04:28:50;;;;;;;1999.90;999.90;;;15.00;99.90;;;;;;5034251;28;20030;-67
2024/04/06 04:31:17;;;;;;;1999.90;999.90;;;15.00;99.90;;;;;;5034355;28;20119;-70
2024/04/06 04:33:43;;;;;;;1999.90;999.90;;;15.00;99.90;;;;;;5033985;28;20033;-66
2024/04/06 04:36:12;;;;;;;1999.90;999.90;;;15.00;99.90;;;;;;5034243;28;20075;-66
2024/04/06 04:38:39;;;;;;;1999.90;999.90;;;15.00;99.90;;;;;;5034038;28;20045;-72
2024/04/06 04:41:05;;;;;;;1999.90;999.90;;;14.90;99.90;;;;;;5034116;28;20527;-66
2024/04/06 04:43:30;;;;;;;1999.90;999.90;;;14.80;99.90;;;;;;5034051;28;20053;-70
2024/04/06 04:45:56;;;;;;;1999.90;999.90;;;14.90;99.90;;;;;;5033869;28;20397;-66
2024/04/06 04:48:23;;;;;;;1999.90;999.90;;;15.00;99.90;;;;;;5033919;28;20030;-67
2024/04/06 04:50:49;;;;;;;1999.90;999.90;;;15.00;99.90;;;;;;5033748;28;20017;-72
2024/04/06 04:53:15;;;;;;;1999.90;999.90;;;15.00;99.90;;;;;;5033544;28;20026;-72
2024/04/06 04:55:41;;;;;;;1999.90;999.90;;;15.00;99.90;;;;;;5033687;28;20057;-67
2024/04/06 04:58:06;;;;;;;1999.90;999.90;;;15.00;99.90;;;;;;5033906;28;20045;-67
2024/04/06 05:00:32;;;;;;;1999.90;999.90;;;15.10;99.90;;;;;;5033575;28;20112;-72
2024/04/06 05:02:59;;;;;;;1999.90;999.90;;;15.00;99.90;;;;;;5033672;28;20099;-66
2024/04/06 05:05:25;;;;;;;1999.90;999.90;;;15.00;99.90;;;;;;5033849;28;20033;-74
2024/04/06 05:07:50;;;;;;;1999.90;999.90;;;14.90;99.90;;;;;;5033232;28;20033;-73
2024/04/06 05:10:16;;;;;;;1999.90;999.90;;;15.10;99.90;;;;;;5033499;28;20467;-71
2024/04/06 05:12:42;;;;;;;1999.90;999.90;;;15.10;99.90;;;;;;5033455;28;20033;-70
2024/04/06 05:15:07;;;;;;;1999.90;999.90;;;15.10;99.90;;;;;;5032499;28;20033;-67
2024/04/06 05:17:34;;;;;;;1999.90;999.90;;;15.10;99.90;;;;;;5033652;28;20034;-69
2024/04/06 05:20:00;;;;;;;1999.90;999.90;;;15.10;99.90;;;;;;5033042;28;20053;-74
2024/04/06 05:22:26;;;;;;;1999.90;999.90;;;15.10;99.90;;;;;;5032885;28;20025;-71
2024/04/06 05:24:51;;;;;;;1999.90;999.90;;;15.20;99.90;;;;;;5033327;28;20030;-67
2024/04/06 05:27:17;;;;;;;1999.90;999.90;;;15.20;99.90;;;;;;5033234;28;20488;-72
2024/04/06 05:29:43;;;;;;;1999.90;999.90;;;15.20;99.90;;;;;;5032808;28;20034;-67
2024/04/06 05:32:08;;;;;;;1999.90;999.90;;;15.20;99.90;;;;;;5033131;28;20022;-73
2024/04/06 05:34:34;;;;;;;1999.90;999.90;;;15.20;99.90;;;;;;5032053;28;20179;-69
2024/04/06 05:37:00;;;;;;;1999.90;999.90;;;15.20;99.90;;;;;;5033279;28;20025;-67
2024/04/06 05:39:26;;;;;;;1999.90;999.90;;;15.10;99.90;;;;;;5033209;28;20048;-73
2024/04/06 05:41:51;;;;;;;1999.90;999.90;;;15.00;99.90;;;;;;5033220;28;20083;-66
2024/04/06 05:44:18;;;;;;;1999.90;999.90;;;15.00;99.90;;;;;;5033091;28;20025;-72
2024/04/06 05:46:43;;;;;;;1999.90;999.90;;;15.10;99.90;;;;;;5032758;28;20140;-67
2024/04/06 05:49:09;;;;;;;1999.90;999.90;;;15.10;99.90;;;;;;5033055;28;20037;-72
2024/04/06 05:51:35;;;;;;;1999.90;999.90;;;15.10;99.90;;;;;;5033170;28;20030;-74
2024/04/06 05:54:01;;;;;;;1999.90;999.90;;;15.10;99.90;;;;;;5032617;28;20038;-72
2024/04/06 05:56:27;;;;;;;1999.90;999.90;;;15.10;99.90;;;;;;5033053;28;20470;-70
2024/04/06 05:58:52;;;;;;;1999.90;999.90;;;15.10;99.90;;;;;;5032667;28;20025;-73
2024/04/06 06:01:18;;;;;;;1999.90;999.90;;;15.20;99.90;;;;;;5033106;28;20448;-66
2024/04/06 06:03:44;;;;;;;1999.90;999.90;;;15.30;99.90;;;;;;5032942;28;20029;-66
2024/04/06 06:06:10;;;;;;;1999.90;999.90;;;15.30;99.90;;;;;;5032768;28;20403;-73
2024/04/06 06:08:37;;;;;;;1999.90;999.90;;;15.40;99.90;;;;;;5032060;28;20033;-70
2024/04/06 06:11:04;;;;;;;1999.90;999.90;;;15.40;99.90;;;;;;5032535;28;20037;-67
2024/04/06 06:13:30;;;;;;;1999.90;999.90;;;15.40;99.90;;;;;;5032642;28;20396;-74
2024/04/06 06:15:55;;;;;;;1999.90;999.90;;;15.40;99.90;;;;;;5032662;28;20021;-66
2024/04/06 06:18:21;;;;;;;1999.90;999.90;;;15.40;99.90;;;;;;5032525;28;20050;-68
2024/04/06 06:20:46;;;;;;;1999.90;999.90;;;15.50;99.90;;;;;;5032365;28;20068;-66
2024/04/06 06:23:12;;;;;;;1999.90;999.90;;;15.60;99.90;;;;;;5032119;28;20032;-66
2024/04/06 06:25:38;;;;;;;1999.90;999.90;;;15.60;99.90;;;;;;5032358;28;20025;-72
2024/04/06 06:28:05;;;;;;;1999.90;999.90;;;15.60;99.90;;;;;;5032568;28;20034;-67
2024/04/06 06:30:30;;;;;;;1999.90;999.90;;;15.80;99.90;;;;;;5032297;28;20056;-69
2024/04/06 06:32:57;;;;;;;1999.90;999.90;;;15.80;99.90;;;;;;5032306;28;20135;-66
2024/04/06 06:35:23;;;;;;;1999.90;999.90;;;15.90;99.90;;;;;;5032516;28;20021;-70
2024/04/06 06:37:49;;;;;;;1999.90;999.90;;;15.90;99.90;;;;;;5032450;28;20108;-67
2024/04/06 06:40:14;;;;;;;1999.90;999.90;;;16.00;99.90;;;;;;5032467;28;20053;-71
2024/04/06 06:42:40;;;;;;;1999.90;999.90;;;15.90;99.90;;;;;;5035711;28;20392;-74
2024/04/06 06:45:06;;;;;;;1999.90;999.90;;;16.00;99.90;;;;;;5036177;28;20025;-70
2024/04/06 06:47:35;;;;;;;1999.90;999.90;;;16.00;99.90;;;;;;5036277;28;20052;-68
2024/04/06 06:50:02;;;;;;;1999.90;999.90;;;16.00;99.90;;;;;;5036403;28;20052;-70
2024/04/06 06:52:28;;;;;;;1999.90;999.90;;;16.00;99.90;;;;;;5035862;28;20120;-66
2024/04/06 06:54:54;;;;;;;1999.90;999.90;;;16.10;99.90;;;;;;5035882;28;20104;-71
2024/04/06 06:57:20;;;;;;;1999.90;999.90;;;16.20;99.90;;;;;;5036248;28;20109;-70
2024/04/06 06:59:45;;;;;;;1999.90;999.90;;;16.20;99.90;;;;;;5035050;28;20101;-66
2024/04/06 07:02:11;;;;;;;1999.90;999.90;;;16.20;99.90;;;;;;5036126;28;20037;-66
2024/04/06 07:04:36;;;;;;;1999.90;999.90;;;16.30;99.90;;;;;;5035705;28;20408;-72
2024/04/06 07:07:03;;;;;;;1999.90;999.90;;;16.30;99.90;;;;;;5035767;28;20037;-71
2024/04/06 07:09:28;;;;;;;1999.90;999.90;;;16.30;99.90;;;;;;5035817;28;20075;-67
2024/04/06 07:11:55;;;;;;;1999.90;999.90;;;16.40;99.90;;;;;;5035882;28;20476;-73
2024/04/06 07:14:20;;;;;;;1999.90;999.90;;;16.40;99.90;;;;;;5035788;28;20119;-69
2024/04/06 07:16:46;;;;;;;1999.90;999.90;;;16.30;99.90;;;;;;5035593;28;20100;-69
2024/04/06 07:19:12;;;;;;;1999.90;999.90;;;16.20;99.90;;;;;;5035604;28;20519;-66
2024/04/06 07:21:37;;;;;;;1999.90;999.90;;;16.20;99.90;;;;;;5035478;28;20025;-69
2024/04/06 07:24:04;;;;;;;1999.90;999.90;;;16.20;99.90;;;;;;5035289;28;20695;-68
2024/04/06 07:26:29;;;;;;;1999.90;999.90;;;16.30;99.90;;;;;;5034023;28;20116;-66
2024/04/06 07:28:56;;;;;;;1999.90;999.90;;;16.30;99.90;;;;;;5035327;28;20061;-69
2024/04/06 07:31:23;;;;;;;1999.90;999.90;;;16.20;99.90;;;;;;5035461;28;20091;-69
2024/04/06 07:33:50;;;;;;;1999.90;999.90;;;16.20;99.90;;;;;;5035426;28;20080;-66
2024/04/06 07:36:15;;;;;;;1999.90;999.90;;;16.20;99.90;;;;;;5035263;28;20442;-69
2024/04/06 07:38:41;;;;;;;1999.90;999.90;;;16.20;99.90;;;;;;5035037;28;20053;-66
2024/04/06 07:41:08;;;;;;;1999.90;999.90;;;16.20;99.90;;;;;;5035181;28;20112;-66
2024/04/06 07:43:34;;;;;;;1999.90;999.90;;;16.20;99.90;;;;;;5035057;28;20104;-72
2024/04/06 07:46:00;;;;;;;1999.90;999.90;;;16.20;99.90;;;;;;5035259;28;20037;-66
2024/04/06 07:48:25;;;;;;;1999.90;999.90;;;16.30;99.90;;;;;;5035083;28;20022;-67
2024/04/06 07:50:51;;;;;;;1999.90;999.90;;;16.40;99.90;;;;;;5035472;28;20021;-72
2024/04/06 07:53:18;;;;;;;1999.90;999.90;;;16.50;99.90;;;;;;5034569;28;20118;-66
2024/04/06 07:55:44;;;;;;;1999.90;999.90;;;16.60;99.90;;;;;;5034973;28;20025;-72
2024/04/06 07:58:10;;;;;;;1999.90;999.90;;;16.70;99.90;;;;;;5034934;28;20075;-70
2024/04/06 08:00:36;;;;;;;1999.90;999.90;;;16.70;99.90;;;;;;5034581;28;20100;-67
2024/04/06 08:03:03;;;;;;;1999.90;999.90;;;16.80;99.90;;;;;;5034973;28;20071;-66
2024/04/06 08:05:29;;;;;;;1999.90;999.90;;;16.90;99.90;;;;;;5034866;28;20041;-70
2024/04/06 08:07:55;;;;;;;1999.90;999.90;;;17.00;99.90;;;;;;5034450;28;20026;-70
2024/04/06 08:10:22;;;;;;;1999.90;999.90;;;17.10;99.90;;;;;;5034756;28;20036;-72
2024/04/06 08:12:48;;;;;;;1999.90;999.90;;;17.10;99.90;;;;;;5034564;28;20423;-70
2024/04/06 08:15:14;;;;;;;1999.90;999.90;;;17.10;99.90;;;;;;5034399;28;20474;-70
2024/04/06 08:17:50;;;;;;;1999.90;999.90;;;17.20;99.90;;;;;;5034837;28;20033;-66
2024/04/06 08:20:18;;;;;;;1999.90;999.90;;;17.20;99.90;;;;;;5034779;28;20528;-70
2024/04/06 08:22:44;;;;;;;1999.90;999.90;;;17.30;99.90;;;;;;5033928;28;20080;-69
2024/04/06 08:25:11;;;;;;;1999.90;999.90;;;17.10;99.90;;;;;;5034303;28;20030;-69
2024/04/06 08:27:37;;;;;;;1999.90;999.90;;;16.80;99.90;;;;;;5034277;28;20057;-69
2024/04/06 08:30:12;;;;;;;1999.90;999.90;;;16.50;99.90;;;;;;5032958;28;20036;-66
2024/04/06 08:32:40;;;;;;;1999.90;999.90;;;16.40;99.90;;;;;;5033994;28;20025;-71
2024/04/06 08:35:14;;;;;;;1999.90;999.90;;;16.40;99.90;;;;;;5034278;28;20105;-71
2024/04/06 08:37:40;;;;;;;1999.90;999.90;;;16.20;99.90;;;;;;5034163;28;20059;-66
2024/04/06 08:40:08;;;;;;;1999.90;999.90;;;16.30;99.90;;;;;;5034012;28;20033;-70
2024/04/06 08:42:42;;;;;;;1999.90;999.90;;;16.30;99.90;;;;;;5034255;28;20484;-66
2024/04/06 08:45:08;;;;;;;1999.90;999.90;;;16.30;99.90;;;;;;5034318;28;20030;-66
2024/04/06 08:47:34;;;;;;;1999.90;999.90;;;16.30;99.90;;;;;;5034243;28;20026;-71
2024/04/06 08:50:05;;;;;;;1999.90;999.90;;;16.30;99.90;;;;;;5034188;28;20030;-71
2024/04/06 08:52:35;;;;;;;1999.90;999.90;;;16.40;99.90;;;;;;5033836;28;20040;-66
2024/04/06 08:55:01;;;;;;;1999.90;999.90;;;16.50;99.90;;;;;;5033564;28;20120;-70
2024/04/06 08:57:27;;;;;;;1999.90;999.90;;;16.50;99.90;;;;;;5033746;28;20053;-69
2024/04/06 08:59:53;;;;;;;1999.90;999.90;;;16.60;99.90;;;;;;5033655;28;20037;-70
2024/04/06 09:02:19;;;;;;;1999.90;999.90;;;16.60;99.90;;;;;;5033849;28;20033;-70
2024/04/06 09:04:44;;;;;;;1999.90;999.90;;;16.70;99.90;;;;;;5032471;28;20396;-70
2024/04/06 09:07:10;;;;;;;1999.90;999.90;;;16.70;99.90;;;;;;5033554;28;20026;-66
2024/04/06 09:09:37;;;;;;;1999.90;999.90;;;16.80;99.90;;;;;;5033406;28;20061;-70
2024/04/06 09:12:03;;;;;;;1999.90;999.90;;;16.80;99.90;;;;;;5033677;28;20026;-70
2024/04/06 09:14:31;;;;;;;1999.90;999.90;;;16.90;99.90;;;;;;5033385;28;20428;-67
2024/04/06 09:16:58;;;;;;;1999.90;999.90;;;17.00;99.90;;;;;;5033334;28;20598;-66
2024/04/06 09:19:25;;;;;;;1999.90;999.90;;;17.10;99.90;;;;;;5033369;28;20119;-69
2024/04/06 09:21:50;;;;;;;1999.90;999.90;;;17.10;99.90;;;;;;5033294;28;20416;-70
2024/04/06 09:24:16;;;;;;;1999.90;999.90;;;17.20;99.90;;;;;;5033012;28;20064;-70
2024/04/06 09:26:42;;;;;;;1999.90;999.90;;;17.10;99.90;;;;;;5032794;28;20037;-66
2024/04/06 09:29:08;;;;;;;1999.90;999.90;;;17.10;99.90;;;;;;5033183;28;20025;-66
2024/04/06 09:31:36;;;;;;;1999.90;999.90;;;17.10;99.90;;;;;;5033243;28;20037;-70
2024/04/06 09:34:02;;;;;;;1999.90;999.90;;;17.10;99.90;;;;;;5033115;28;20024;-66
2024/04/06 09:36:31;;;;;;;1999.90;999.90;;;17.20;99.90;;;;;;5032799;28;20026;-66
2024/04/06 09:38:58;;;;;;;1999.90;999.90;;;17.10;99.90;;;;;;5031600;28;20492;-70
2024/04/06 09:41:24;;;;;;;1999.90;999.90;;;17.10;99.90;;;;;;5033068;28;20096;-70
2024/04/06 09:43:53;;;;;;;1999.90;999.90;;;17.10;99.90;;;;;;5033266;28;20056;-70
2024/04/06 09:46:19;;;;;;;1999.90;999.90;;;17.20;99.90;;;;;;5032915;28;20029;-66
2024/04/06 09:48:46;;;;;;;1999.90;999.90;;;17.20;99.90;;;;;;5032907;28;20395;-66
2024/04/06 09:51:12;;;;;;;1999.90;999.90;;;17.20;99.90;;;;;;5032776;28;20080;-66
2024/04/06 09:53:40;;;;;;;1999.90;999.90;;;17.30;99.90;;;;;;5032727;28;20036;-66
2024/04/06 09:56:08;;;;;;;1999.90;999.90;;;17.30;99.90;;;;;;5033244;28;20087;-66
2024/04/06 09:58:34;;;;;;;1999.90;999.90;;;17.30;99.90;;;;;;5032165;28;20477;-66
2024/04/06 10:01:08;;;;;;;1999.90;999.90;;;17.40;99.90;;;;;;5032826;28;20084;-66
2024/04/06 10:03:45;;;;;;;1999.90;999.90;;;17.40;99.90;;;;;;5032699;28;20026;-69
2024/04/06 10:06:19;;;;;;;1999.90;999.90;;;17.50;99.90;;;;;;5032662;28;20113;-70
2024/04/06 10:08:48;;;;;;;1999.90;999.90;;;17.40;99.90;;;;;;5032324;28;20079;-69
2024/04/06 10:11:22;;;;;;;1999.90;999.90;;;17.40;99.90;;;;;;5032762;28;20061;-70
2024/04/06 10:14:04;;;;;;;1999.90;999.90;;;17.50;99.90;;;;;;5032450;28;20029;-66
2024/04/06 10:16:32;;;;;;;1999.90;999.90;;;17.50;99.90;;;;;;5034028;28;20079;-70
2024/04/06 10:19:01;;;;;;;1999.90;999.90;;;17.60;99.90;;;;;;5036637;28;20552;-70
2024/04/06 10:21:32;;;;;;;1999.90;999.90;;;17.80;99.90;;;;;;5036704;28;20030;-67
2024/04/06 10:23:57;;;;;;;1999.90;999.90;;;17.80;99.90;;;;;;5036553;28;20079;-70
2024/04/06 10:26:23;;;;;;;1999.90;999.90;;;18.00;99.90;;;;;;5036572;28;20026;-70
2024/04/06 10:28:49;;;;;;;1999.90;999.90;;;18.20;99.90;;;;;;5036495;28;20025;-69
2024/04/06 10:31:15;;;;;;;1999.90;999.90;;;18.20;99.90;;;;;;5036791;28;20026;-70
2024/04/06 10:33:42;;;;;;;1999.90;999.90;;;18.20;99.90;;;;;;5016412;28;20033;-66
2024/04/06 10:36:12;;;;;;;1999.90;999.90;;;18.20;99.90;;;;;;5016476;28;20021;-70
2024/04/06 10:38:39;;;;;;;1999.90;999.90;;;18.20;99.90;;;;;;5016482;28;20026;-69
2024/04/06 10:41:05;;;;;;;1999.90;999.90;;;18.20;99.90;;;;;;5016747;28;20052;-66
2024/04/06 10:43:32;;;;;;;1999.90;999.90;;;18.30;99.90;;;;;;5016553;28;20029;-70
2024/04/06 10:45:58;;;;;;;1999.90;999.90;;;18.40;99.90;;;;;;5019055;28;20030;-70
2024/04/06 10:48:24;;;;;;;1999.90;999.90;;;18.50;99.90;;;;;;5036086;28;20061;-66
2024/04/06 10:50:51;;;;;;;1999.90;999.90;;;18.50;99.90;;;;;;5036295;28;20057;-66
2024/04/06 10:53:18;;;;;;;1999.90;999.90;;;18.50;99.90;;;;;;5036214;28;20491;-67
2024/04/06 10:55:45;;;;;;;1999.90;999.90;;;18.40;99.90;;;;;;5036198;28;20037;-71
2024/04/06 10:58:11;;;;;;;1999.90;999.90;;;18.50;99.90;;;;;;5036146;28;20053;-72
2024/04/06 11:00:40;;;;;;;1999.90;999.90;;;18.40;99.90;;;;;;5034838;28;20067;-66
2024/04/06 11:03:07;;;;;;;1999.90;999.90;;;18.50;99.90;;;;;;5036192;28;20057;-66
2024/04/06 11:05:37;;;;;;;1999.90;999.90;;;18.60;99.90;;;;;;5035793;28;20477;-71
2024/04/06 11:08:06;;;;;;;1999.90;999.90;;;18.70;99.90;;;;;;5035643;28;20033;-71
2024/04/06 11:10:33;;;;;;;1999.90;999.90;;;18.70;99.90;;;;;;5035517;28;20087;-70
2024/04/06 11:13:00;;;;;;;1999.90;999.90;;;18.60;99.90;;;;;;5035702;28;20034;-67
2024/04/06 11:15:27;;;;;;;1999.90;999.90;;;18.60;99.90;;;;;;5035573;28;20041;-67
2024/04/06 11:17:54;;;;;;;1999.90;999.90;;;18.70;99.90;;;;;;5035627;28;20029;-67
2024/04/06 11:20:20;;;;;;;1999.90;999.90;;;18.70;99.90;;;;;;5035569;28;20040;-67
2024/04/06 11:22:45;;;;;;;1999.90;999.90;;;18.80;99.90;;;;;;5035031;28;20412;-67
2024/04/06 11:25:15;;;;;;;1999.90;999.90;;;18.80;99.90;;;;;;5035463;28;20120;-66
2024/04/06 11:27:47;;;;;;;1999.90;999.90;;;18.70;99.90;;;;;;5035116;28;20105;-70
2024/04/06 11:30:14;;;;;;;1999.90;999.90;;;18.60;99.90;;;;;;5035914;28;20021;-67
2024/04/06 11:32:40;;;;;;;1999.90;999.90;;;18.80;99.90;;;;;;5035223;28;20029;-69
2024/04/06 11:35:06;;;;;;;1999.90;999.90;;;18.80;99.90;;;;;;5035156;28;20036;-70
2024/04/06 11:37:31;;;;;;;1999.90;999.90;;;18.90;99.90;;;;;;5035541;28;20404;-71
2024/04/06 11:39:57;;;;;;;1999.90;999.90;;;19.00;99.90;;;;;;5035080;28;20095;-70
2024/04/06 11:42:23;;;;;;;1999.90;999.90;;;19.10;99.90;;;;;;5035648;28;20033;-71
2024/04/06 11:44:48;;;;;;;1999.90;999.90;;;19.10;99.90;;;;;;5034745;28;20029;-67
2024/04/06 11:47:14;;;;;;;1999.90;999.90;;;19.20;99.90;;;;;;5035388;28;20033;-66
2024/04/06 11:49:40;;;;;;;1999.90;999.90;;;19.30;99.90;;;;;;5035240;28;20026;-71
2024/04/06 11:52:06;;;;;;;1999.90;999.90;;;19.20;99.90;;;;;;5035033;28;20104;-71
2024/04/06 11:54:32;;;;;;;1999.90;999.90;;;19.30;99.90;;;;;;5034721;28;20076;-70